Time;durP1;ratioP1;P1;durP2;ratioP2;P2;SDS_P1;SDS_P2;PMS_P1;PMS_P2;Temp;Humidity;BMP_temperature;BMP_pressure;BME280_temperature;BME280_humidity;BME280_pressure;Samples;Min_cycle;Max_cycle;Signal;HPM_P1;HPM_P2
2022/07/31 00:02:50;;;;;;;21.75;15.20;;;;;;;18.57;77.42;101730.44;5028940;28;20852;-91
2022/07/31 00:05:33;;;;;;;21.38;15.50;;;;;;;18.48;77.30;101717.69;5027449;28;20086;-91
2022/07/31 00:08:05;;;;;;;19.58;14.82;;;;;;;18.45;77.23;101713.41;5028092;28;20108;-91
2022/07/31 00:10:38;;;;;;;20.63;15.23;;;;;;;18.44;79.21;101698.56;5066824;28;20091;-90
2022/07/31 00:13:24;;;;;;;21.88;15.48;;;;;;;18.44;78.74;101710.84;5022037;28;20456;-91
2022/07/31 00:16:01;;;;;;;21.70;15.38;;;;;;;18.47;77.42;101705.47;5036044;28;20112;-91
2022/07/31 00:18:55;;;;;;;20.58;15.15;;;;;;;18.45;77.71;101696.81;5035687;28;20104;-91
2022/07/31 00:22:02;;;;;;;21.53;15.37;;;;;;;18.49;77.71;101703.66;5029933;28;20126;-91
2022/07/31 00:24:56;;;;;;;20.70;15.82;;;;;;;18.49;78.34;101708.91;5041231;28;20409;-91
2022/07/31 00:28:06;;;;;;;22.03;15.70;;;;;;;18.46;77.28;101695.91;5033467;28;20024;-91
2022/07/31 00:34:33;;;;;;;21.92;16.05;;;;;;;18.43;77.93;101683.75;4972726;28;20053;-90
2022/07/31 00:40:36;;;;;;;23.38;15.57;;;;;;;18.37;79.46;101683.16;5060651;28;20028;-90
2022/07/31 00:43:27;;;;;;;25.48;15.57;;;;;;;18.39;79.79;101699.69;5006753;28;20038;-90
2022/07/31 00:46:35;;;;;;;20.92;15.43;;;;;;;18.32;79.86;101691.22;5017585;28;20088;-90
2022/07/31 00:49:01;;;;;;;22.30;15.38;;;;;;;18.34;80.79;101697.28;5003035;28;20037;-89
2022/07/31 00:54:56;;;;;;;18.58;14.30;;;;;;;18.34;80.74;101683.28;4946961;28;20046;-90
2022/07/31 00:58:11;;;;;;;21.73;15.75;;;;;;;18.33;79.84;101681.59;5008972;28;20091;-90
2022/07/31 01:01:03;;;;;;;20.83;14.98;;;;;;;18.32;79.24;101685.13;4962081;28;20422;-90
2022/07/31 01:04:06;;;;;;;19.33;14.50;;;;;;;18.30;79.47;101679.06;4944948;28;20034;-90
2022/07/31 01:06:43;;;;;;;20.80;15.68;;;;;;;18.27;81.18;101679.22;4980851;28;20038;-89
2022/07/31 01:09:56;;;;;;;;;;;;;;;;;;;;;
2022/07/31 01:12:57;;;;;;;19.33;16.05;;;;;;;18.29;79.67;101672.13;5053171;28;20036;-90
2022/07/31 01:16:01;;;;;;;22.35;15.15;;;;;;;18.16;80.19;101671.78;5025895;28;20036;-90
2022/07/31 01:19:01;;;;;;;;;;;;;;;;;;;;;
2022/07/31 01:22:08;;;;;;;20.42;15.55;;;;;;;18.11;80.44;101666.75;5044176;28;20039;-90
2022/07/31 01:28:58;;;;;;;20.80;15.45;;;;;;;18.16;82.10;101675.25;5025093;28;20021;-90
2022/07/31 01:32:05;;;;;;;21.17;15.32;;;;;;;18.17;80.41;101679.59;5035622;28;20021;-89
2022/07/31 01:35:04;;;;;;;21.17;16.27;;;;;;;18.09;80.53;101670.34;5024494;28;20444;-89
2022/07/31 01:37:57;;;;;;;19.30;15.80;;;;;;;18.08;81.11;101672.09;5011944;28;20028;-90
2022/07/31 01:41:01;;;;;;;19.73;14.75;;;;;;;17.98;81.06;101657.69;5028397;28;20030;-90
2022/07/31 01:43:53;;;;;;;21.85;15.45;;;;;;;17.99;80.77;101672.50;5060461;28;20157;-91
2022/07/31 01:46:37;;;;;;;21.05;14.57;;;;;;;17.95;81.70;101673.53;5031695;28;20406;-90
2022/07/31 01:49:09;;;;;;;23.70;14.20;;;;;;;17.90;82.38;101661.53;5029340;28;20041;-91
2022/07/31 01:51:58;;;;;;;21.70;14.30;;;;;;;17.89;81.96;101660.66;5052873;28;20029;-90
2022/07/31 01:54:40;;;;;;;18.95;13.18;;;;;;;17.93;81.55;101656.16;5024051;28;20071;-91
2022/07/31 01:57:49;;;;;;;17.33;12.82;;;;;;;17.97;81.41;101661.22;5031593;28;20064;-91
2022/07/31 02:00:28;;;;;;;16.48;12.40;;;;;;;18.03;80.79;101665.34;5061944;28;20439;-91
2022/07/31 02:03:58;;;;;;;16.02;11.88;;;;;;;18.06;78.72;101670.47;5017719;28;20120;-91
2022/07/31 02:06:55;;;;;;;17.60;10.73;;;;;;;18.07;79.33;101675.66;5015017;28;20048;-91
2022/07/31 02:09:45;;;;;;;14.07;10.23;;;;;;;18.11;79.80;101679.84;5065628;28;20386;-89
2022/07/31 02:12:12;;;;;;;21.52;10.38;;;;;;;18.14;77.07;101674.50;5030965;28;20033;-90
2022/07/31 02:14:59;;;;;;;14.18;9.90;;;;;;;18.11;76.48;101664.13;5026834;28;20351;-90
2022/07/31 02:17:54;;;;;;;;;;;;;;;;;;;;;
2022/07/31 02:20:45;;;;;;;13.07;9.15;;;;;;;18.22;77.66;101673.31;5048428;28;20033;-89
2022/07/31 02:26:05;;;;;;;14.98;9.70;;;;;;;18.26;77.43;101664.38;5069103;28;20049;-90
2022/07/31 02:28:56;;;;;;;16.25;10.70;;;;;;;18.22;75.57;101654.94;5043475;28;20140;-89
2022/07/31 02:31:50;;;;;;;16.73;10.32;;;;;;;18.26;76.23;101667.00;5029263;28;20039;-91
2022/07/31 02:35:09;;;;;;;16.20;9.65;;;;;;;18.27;76.65;101666.97;5004937;28;20061;-90
2022/07/31 02:38:03;;;;;;;15.32;9.20;;;;;;;18.24;76.84;101660.97;4994891;28;20050;-90
2022/07/31 02:41:15;;;;;;;13.82;9.43;;;;;;;18.31;76.73;101667.66;4995626;28;20121;-90
2022/07/31 02:44:02;;;;;;;13.38;8.93;;;;;;;18.28;75.63;101683.56;5016061;28;20025;-90
2022/07/31 02:47:19;;;;;;;;;;;;;;;;;;;;;
2022/07/31 02:50:56;;;;;;;;;;;;;;;;;;;;;
2022/07/31 02:53:43;;;;;;;14.18;8.68;;;;;;;18.19;75.41;101676.91;5002126;28;20068;-90
2022/07/31 02:56:36;;;;;;;12.82;8.90;;;;;;;18.06;76.27;101666.09;5012117;28;20399;-90
2022/07/31 02:59:03;;;;;;;14.98;8.88;;;;;;;18.09;76.69;101672.97;5013659;28;20051;-89
2022/07/31 03:02:02;;;;;;;21.58;10.27;;;;;;;18.02;76.44;101654.00;5017725;28;20032;-89
2022/07/31 03:05:00;;;;;;;16.35;10.30;;;;;;;17.97;76.47;101653.34;4984016;28;20048;-90
2022/07/31 03:08:00;;;;;;;19.55;10.52;;;;;;;18.01;76.98;101661.94;4994803;28;20188;-90
2022/07/31 03:10:35;;;;;;;17.45;11.05;;;;;;;17.93;77.89;101656.16;4994852;28;20049;-91
2022/07/31 03:13:02;;;;;;;18.30;11.13;;;;;;;17.85;78.52;101650.38;5007139;28;20191;-90
2022/07/31 03:15:31;;;;;;;19.70;10.75;;;;;;;17.84;77.68;101653.91;5013503;28;20025;-91
2022/07/31 03:18:04;;;;;;;20.15;11.20;;;;;;;17.81;78.62;101648.81;5029966;28;20025;-91
2022/07/31 03:21:07;;;;;;;20.67;11.40;;;;;;;17.79;78.80;101645.38;5027737;28;20025;-91
2022/07/31 03:23:49;;;;;;;16.33;11.48;;;;;;;17.74;79.82;101632.47;5023055;28;20045;-90
2022/07/31 03:27:06;;;;;;;19.08;12.20;;;;;;;17.73;78.56;101633.38;5011468;28;20037;-91
2022/07/31 03:30:42;;;;;;;21.88;12.82;;;;;;;17.72;78.68;101631.66;5009688;28;20383;-90
2022/07/31 03:33:45;;;;;;;;;;;;;;;;;;;;;
2022/07/31 03:36:25;;;;;;;20.17;12.43;;;;;;;17.71;79.58;101637.81;5038444;28;20037;-91
2022/07/31 03:39:04;;;;;;;16.70;12.07;;;;;;;17.66;79.93;101626.66;5031443;28;20390;-89
2022/07/31 03:42:02;;;;;;;20.27;12.95;;;;;;;17.70;79.23;101630.88;5031377;28;20385;-90
2022/07/31 03:48:01;;;;;;;21.98;13.18;;;;;;;17.71;80.39;101640.44;5051854;28;20335;-90
2022/07/31 03:51:03;;;;;;;18.92;13.45;;;;;;;17.68;80.12;101640.56;5050802;28;20028;-90
2022/07/31 03:53:39;;;;;;;18.40;13.40;;;;;;;17.69;80.39;101643.13;5046566;28;20033;-90
2022/07/31 03:59:55;;;;;;;22.27;13.85;;;;;;;17.70;79.53;101641.34;4979846;28;20120;-90
2022/07/31 04:03:04;;;;;;;20.85;14.63;;;;;;;17.73;79.46;101643.88;5031525;28;20120;-89
2022/07/31 04:05:53;;;;;;;19.52;13.65;;;;;;;17.65;79.94;101638.94;5012773;28;20084;-89
2022/07/31 04:11:41;;;;;;;22.08;15.80;;;;;;;17.71;80.21;101650.94;5066333;28;20059;-90
2022/07/31 04:14:31;;;;;;;25.13;16.63;;;;;;;17.74;79.60;101656.06;5039242;28;20408;-90
2022/07/31 04:17:35;;;;;;;24.35;16.42;;;;;;;17.70;80.98;101657.94;5050078;28;20089;-89
2022/07/31 04:23:33;;;;;;;27.23;19.10;;;;;;;17.70;80.70;101643.97;5057924;28;20033;-89
2022/07/31 04:26:02;;;;;;;24.70;18.10;;;;;;;17.66;81.26;101648.50;5042346;28;20084;-89
2022/07/31 04:31:47;;;;;;;29.98;19.17;;;;;;;17.68;81.33;101657.13;4957266;28;20109;-90
2022/07/31 04:34:41;;;;;;;28.48;18.33;;;;;;;17.67;79.90;101647.56;5070432;28;20056;-90
2022/07/31 04:37:55;;;;;;;;;;;;;;;;;;;;;
2022/07/31 04:41:02;;;;;;;22.45;17.88;;;;;;;17.72;79.12;101650.88;4994663;28;20031;-89
2022/07/31 04:43:46;;;;;;;24.67;18.23;;;;;;;17.76;78.98;101652.44;4974854;28;21155;-90
2022/07/31 04:47:02;;;;;;;;;;;;;;;;;;;;;
2022/07/31 04:53:35;;;;;;;30.73;19.60;;;;;;;17.90;78.80;101654.50;4996598;28;20544;-89
2022/07/31 04:59:03;;;;;;;27.33;18.33;;;;;;;17.89;78.52;101644.94;4999168;28;20044;-89
2022/07/31 05:02:03;;;;;;;23.60;18.13;;;;;;;17.96;78.58;101651.63;5001150;28;20043;-90
2022/07/31 05:04:34;;;;;;;26.80;17.27;;;;;;;18.01;78.18;101660.19;4972376;28;20539;-89
2022/07/31 05:07:25;;;;;;;24.75;17.98;;;;;;;18.00;78.06;101644.50;4969053;28;20488;-90
2022/07/31 05:13:10;;;;;;;24.10;16.52;;;;;;;18.05;80.58;101638.13;5009913;28;20044;-89
2022/07/31 05:15:41;;;;;;;27.55;17.20;;;;;;;18.05;79.08;101643.38;5035983;28;20236;-89
2022/07/31 05:18:07;;;;;;;23.05;15.93;;;;;;;18.03;79.39;101645.22;5019769;28;20025;-90
2022/07/31 05:21:12;;;;;;;;;;;;;;;;;;;;;
2022/07/31 05:23:54;;;;;;;;;;;;;;;18.08;78.11;101651.09;5048405;28;20032;-90
2022/07/31 05:27:10;;;;;;;23.10;16.00;;;;;;;17.98;79.80;101646.31;5040656;28;19912;-90
2022/07/31 05:29:53;;;;;;;22.67;15.85;;;;;;;17.91;81.75;101634.38;5050656;28;20566;-90
2022/07/31 05:32:57;;;;;;;26.80;16.52;;;;;;;17.97;82.55;101640.22;5041916;28;20037;-90
2022/07/31 05:35:58;;;;;;;26.50;15.73;;;;;;;17.97;81.31;101637.59;5026743;28;20123;-90
2022/07/31 05:39:12;;;;;;;22.48;14.45;;;;;;;17.95;81.13;101615.81;5042009;28;20041;-90
2022/07/31 05:46:01;;;;;;;21.85;13.82;;;;;;;18.07;81.81;101624.97;5034371;28;20405;-91
2022/07/31 05:51:52;;;;;;;19.27;12.77;;;;;;;18.09;82.52;101629.19;5034556;28;20028;-91
2022/07/31 06:00:05;;;;;;;18.05;11.55;;;;;;;18.17;82.56;101621.00;5000537;28;21134;-91
2022/07/31 06:02:30;;;;;;;17.85;12.10;;;;;;;18.20;84.44;101620.91;4997518;28;20495;-91
2022/07/31 06:05:02;;;;;;;16.73;11.85;;;;;;;18.23;82.89;101627.75;4985751;28;20034;-90
2022/07/31 06:07:39;;;;;;;16.25;11.00;;;;;;;18.25;82.70;101631.19;5006891;28;20037;-90
2022/07/31 06:10:09;;;;;;;15.65;10.45;;;;;;;18.26;82.66;101628.50;4985510;28;20093;-90
2022/07/31 06:12:35;;;;;;;17.00;9.88;;;;;;;18.28;83.31;101633.69;5005751;28;20057;-90
2022/07/31 06:15:00;;;;;;;15.43;9.93;;;;;;;18.30;83.00;101639.72;4990016;28;20044;-90
2022/07/31 06:17:27;;;;;;;15.07;9.98;;;;;;;18.31;82.70;101639.66;5009395;28;20048;-89
2022/07/31 06:20:12;;;;;;;15.27;9.32;;;;;;;18.41;82.83;101648.00;5011969;28;20072;-89
2022/07/31 06:23:16;;;;;;;12.80;9.13;;;;;;;18.38;82.88;101632.34;4981210;28;20481;-89
2022/07/31 06:28:50;;;;;;;;;;;;;;;18.60;81.02;101640.19;5007469;28;20171;-90
2022/07/31 06:32:07;;;;;;;16.50;8.55;;;;;;;18.65;81.75;101636.44;5038608;28;20009;-89
2022/07/31 06:34:36;;;;;;;13.73;8.27;;;;;;;18.69;82.30;101624.88;5032917;28;20522;-89
2022/07/31 06:37:01;;;;;;;14.60;8.07;;;;;;;18.79;82.15;101622.69;5027617;28;20049;-89
2022/07/31 06:40:13;;;;;;;;;;;;;;;;;;;;;
2022/07/31 06:42:58;;;;;;;12.55;7.72;;;;;;;19.02;81.12;101629.53;5053062;28;20037;-91
2022/07/31 06:45:32;;;;;;;13.35;8.07;;;;;;;19.07;82.57;101619.63;5021434;28;20503;-91
2022/07/31 06:47:57;;;;;;;;;;;;;;;19.24;80.25;101632.84;5004321;28;20046;-90
2022/07/31 06:50:22;;;;;;;13.57;8.02;;;;;;;19.28;80.96;101623.88;5014787;28;19917;-90
2022/07/31 06:52:51;;;;;;;11.98;7.20;;;;;;;19.30;81.47;101622.06;5015660;28;20579;-90
2022/07/31 06:55:19;;;;;;;14.30;8.80;;;;;;;19.32;80.50;101623.66;5023934;28;20133;-90
2022/07/31 06:57:45;;;;;;;16.48;8.88;;;;;;;19.36;80.33;101629.66;5009446;28;20079;-90
2022/07/31 07:00:15;;;;;;;14.82;8.32;;;;;;;19.31;79.87;101635.09;5000031;28;20042;-90
2022/07/31 07:02:40;;;;;;;15.25;8.13;;;;;;;19.36;81.45;101631.41;5012841;28;20037;-90
2022/07/31 07:05:06;;;;;;;13.80;8.70;;;;;;;19.36;81.16;101640.16;5025639;28;20041;-90
2022/07/31 07:07:34;;;;;;;16.15;8.52;;;;;;;19.43;81.08;101638.09;5026785;28;20088;-90
2022/07/31 07:09:59;;;;;;;16.33;8.80;;;;;;;19.49;80.36;101638.69;5025970;28;20595;-90
2022/07/31 07:12:24;;;;;;;14.02;8.23;;;;;;;19.55;80.42;101637.53;5027152;28;20538;-90
2022/07/31 07:14:50;;;;;;;17.70;9.45;;;;;;;19.61;79.83;101627.56;5026819;28;20033;-90
2022/07/31 07:17:15;;;;;;;15.48;9.02;;;;;;;19.59;80.72;101624.13;5030249;28;20065;-90
2022/07/31 07:19:44;;;;;;;15.15;8.35;;;;;;;19.71;80.28;101626.19;5050750;28;20104;-87
2022/07/31 07:22:12;;;;;;;17.95;9.00;;;;;;;19.79;80.93;101620.53;5050855;28;20091;-87
2022/07/31 07:24:37;;;;;;;17.40;9.18;;;;;;;19.82;79.48;101623.03;5049078;28;20037;-87
2022/07/31 07:27:05;;;;;;;17.15;10.00;;;;;;;19.92;79.22;101621.66;5031084;28;20032;-90
2022/07/31 07:29:33;;;;;;;19.85;10.30;;;;;;;19.98;78.84;101609.97;5050635;28;20029;-90
2022/07/31 07:31:58;;;;;;;15.63;9.10;;;;;;;20.06;79.72;101605.97;5052990;28;20023;-90
2022/07/31 07:34:24;;;;;;;17.83;9.63;;;;;;;20.17;78.18;101610.72;5032109;28;20052;-91
2022/07/31 07:36:50;;;;;;;18.83;9.57;;;;;;;20.28;79.33;101611.00;5048660;28;20082;-89
2022/07/31 07:39:15;;;;;;;17.92;10.00;;;;;;;20.35;77.86;101614.19;5034973;28;20029;-89
2022/07/31 07:41:40;;;;;;;21.13;10.43;;;;;;;20.42;77.56;101619.06;5031263;28;20079;-91
2022/07/31 07:44:11;;;;;;;21.02;10.88;;;;;;;20.49;77.41;101612.56;5047216;28;20086;-92
2022/07/31 07:46:37;;;;;;;20.65;11.00;;;;;;;20.57;76.21;101619.19;5051258;28;20098;-90
2022/07/31 07:49:06;;;;;;;20.73;10.95;;;;;;;20.62;76.39;101612.75;5049135;28;20033;-86
2022/07/31 07:51:31;;;;;;;21.60;11.13;;;;;;;20.64;76.59;101603.00;5050588;28;20066;-87
2022/07/31 07:53:57;;;;;;;18.88;10.23;;;;;;;20.77;77.15;101604.03;5048221;28;20028;-87
2022/07/31 07:56:23;;;;;;;22.25;11.95;;;;;;;20.84;76.12;101600.13;5029329;28;20099;-88
2022/07/31 07:58:48;;;;;;;21.55;11.48;;;;;;;20.98;76.44;101594.09;5027479;28;20033;-87
2022/07/31 08:01:18;;;;;;;21.45;11.40;;;;;;;21.19;75.47;101592.94;5048527;28;20040;-87
2022/07/31 08:03:46;;;;;;;21.42;12.38;;;;;;;21.33;74.43;101596.59;5048902;28;20025;-87
2022/07/31 08:06:12;;;;;;;23.80;12.20;;;;;;;21.38;73.95;101602.44;5047608;28;20371;-90
2022/07/31 08:08:40;;;;;;;21.90;12.20;;;;;;;21.41;74.52;101605.78;5027374;28;20521;-91
2022/07/31 08:11:14;;;;;;;22.52;12.95;;;;;;;21.43;74.17;101605.66;5030843;28;20065;-91
2022/07/31 08:13:51;;;;;;;;;;;;;;;21.55;75.14;101605.84;5047703;28;20482;-91
2022/07/31 08:16:18;;;;;;;22.42;12.32;;;;;;;21.60;74.89;101603.78;5048256;28;19935;-91
2022/07/31 08:18:46;;;;;;;20.38;12.82;;;;;;;21.59;73.72;101588.03;5032799;28;20029;-92
2022/07/31 08:21:20;;;;;;;24.38;13.30;;;;;;;21.63;73.73;101593.03;5050941;28;20052;-91
2022/07/31 08:23:49;;;;;;;19.65;12.25;;;;;;;21.75;73.85;101590.66;5051921;28;20024;-91
2022/07/31 08:26:16;;;;;;;20.60;11.75;;;;;;;22.02;74.56;101587.28;5052217;28;20271;-90
2022/07/31 08:28:44;;;;;;;21.83;11.63;;;;;;;22.29;72.28;101592.69;5033236;28;20036;-92
2022/07/31 08:31:24;;;;;;;18.95;11.20;;;;;;;22.42;72.95;101587.50;5039080;28;20024;-90
2022/07/31 08:33:49;;;;;;;19.77;11.65;;;;;;;22.48;72.02;101581.81;5036830;28;20103;-91
2022/07/31 08:36:21;;;;;;;18.25;11.82;;;;;;;22.66;71.33;101593.03;5039165;28;20044;-92
2022/07/31 08:38:54;;;;;;;19.60;11.60;;;;;;;22.76;70.38;101592.44;5036480;28;20054;-92
2022/07/31 08:41:19;;;;;;;17.10;10.57;;;;;;;22.90;70.89;101590.72;5027975;28;20029;-93
2022/07/31 08:44:00;;;;;;;20.10;12.13;;;;;;;23.00;69.62;101595.31;5032411;28;20298;-92
2022/07/31 08:46:26;;;;;;;20.75;12.30;;;;;;;22.92;69.04;101605.53;5034309;28;20083;-90
2022/07/31 08:48:56;;;;;;;19.63;11.82;;;;;;;22.81;68.36;101595.63;5063150;28;20028;-88
2022/07/31 08:51:22;;;;;;;19.95;11.55;;;;;;;22.68;69.44;101594.66;5029341;28;20441;-88
2022/07/31 08:54:00;;;;;;;16.63;11.13;;;;;;;22.53;70.67;101592.97;5053711;28;20107;-88
2022/07/31 08:56:38;;;;;;;16.88;11.57;;;;;;;22.43;70.20;101592.69;5039160;28;20075;-88
2022/07/31 08:59:05;;;;;;;17.67;11.50;;;;;;;22.40;70.32;101590.22;5049568;28;20049;-88
2022/07/31 09:01:35;;;;;;;17.92;11.75;;;;;;;22.40;70.10;101587.59;5031947;28;20422;-88
2022/07/31 09:04:07;;;;;;;19.63;11.63;;;;;;;22.43;71.60;101599.78;5046015;28;20033;-88
2022/07/31 09:06:32;;;;;;;18.10;11.40;;;;;;;22.34;70.55;101603.81;5024233;28;20490;-88
2022/07/31 09:09:00;;;;;;;17.13;11.38;;;;;;;22.20;71.60;101600.28;5029189;28;20036;-88
2022/07/31 09:11:26;;;;;;;16.65;10.90;;;;;;;22.12;71.86;101599.91;5029849;28;20017;-87
2022/07/31 09:14:00;;;;;;;14.95;11.10;;;;;;;22.12;72.06;101606.03;5048877;28;20029;-87
2022/07/31 09:17:00;;;;;;;;;;;;;;;;;;;;;
2022/07/31 09:19:40;;;;;;;18.65;11.10;;;;;;;22.15;71.96;101586.53;5048872;28;20039;-88
2022/07/31 09:22:27;;;;;;;16.83;10.18;;;;;;;22.23;72.18;101579.00;5040953;28;20078;-88
2022/07/31 09:24:53;;;;;;;16.90;10.02;;;;;;;22.34;72.33;101593.25;5035273;28;20112;-88
2022/07/31 09:27:26;;;;;;;18.73;11.35;;;;;;;22.37;71.31;101579.88;5051789;28;20041;-88
2022/07/31 09:30:07;;;;;;;19.75;11.90;;;;;;;22.41;71.56;101576.06;5032271;28;20025;-88
2022/07/31 09:32:35;;;;;;;14.10;9.82;;;;;;;22.48;74.29;101588.91;5040972;28;20119;-88
2022/07/31 09:35:20;;;;;;;17.40;11.40;;;;;;;22.54;72.69;101593.81;5033178;28;20131;-88
2022/07/31 09:38:00;;;;;;;17.70;11.38;;;;;;;22.60;72.34;101585.50;5028436;28;20114;-87
2022/07/31 09:40:36;;;;;;;15.65;11.02;;;;;;;22.71;72.04;101580.41;5036065;28;20067;-87
2022/07/31 09:43:02;;;;;;;18.33;11.32;;;;;;;22.82;74.28;101583.25;5036805;28;20051;-88
2022/07/31 09:45:27;;;;;;;13.98;10.63;;;;;;;23.13;71.68;101587.47;5046948;28;20029;-87
2022/07/31 09:48:11;;;;;;;14.77;10.20;;;;;;;23.30;71.19;101589.84;5031949;28;20489;-87
2022/07/31 09:51:03;;;;;;;15.15;10.27;;;;;;;23.41;70.46;101591.78;5035874;28;20021;-88
2022/07/31 09:53:48;;;;;;;15.77;10.98;;;;;;;23.40;70.28;101585.66;5019565;28;20032;-88
2022/07/31 09:56:19;;;;;;;16.75;10.85;;;;;;;23.46;68.43;101587.91;5027427;28;20297;-88
2022/07/31 09:58:57;;;;;;;16.17;10.80;;;;;;;23.55;67.99;101591.75;5034212;28;20379;-88
2022/07/31 10:01:23;;;;;;;15.85;11.18;;;;;;;23.53;67.63;101569.84;5052819;28;20026;-88
2022/07/31 10:03:57;;;;;;;15.57;11.13;;;;;;;23.51;67.94;101577.88;5037642;28;20029;-88
2022/07/31 10:06:24;;;;;;;13.80;10.55;;;;;;;23.44;69.78;101579.22;5042306;28;20453;-88
2022/07/31 10:08:54;;;;;;;14.70;10.13;;;;;;;23.53;69.27;101572.50;5042850;28;20025;-88
2022/07/31 10:11:24;;;;;;;14.65;10.23;;;;;;;23.64;70.42;101577.91;5050637;28;20485;-88
2022/07/31 10:14:01;;;;;;;13.90;10.52;;;;;;;23.83;68.10;101582.81;5042456;28;20110;-88
2022/07/31 10:16:30;;;;;;;14.48;10.35;;;;;;;23.85;67.32;101571.19;5028841;28;20037;-87
2022/07/31 10:19:10;;;;;;;15.18;9.77;;;;;;;23.85;68.38;101576.50;5056721;28;20061;-88
2022/07/31 10:21:52;;;;;;;15.50;9.82;;;;;;;23.83;68.19;101573.09;5055065;28;20017;-88
2022/07/31 10:24:24;;;;;;;13.35;9.60;;;;;;;23.86;68.02;101569.41;5028731;28;20025;-89
2022/07/31 10:27:01;;;;;;;13.18;10.13;;;;;;;23.96;67.33;101578.41;5055118;28;20041;-88
2022/07/31 10:32:33;;;;;;;14.23;9.88;;;;;;;23.96;66.83;101565.16;5053058;28;20029;-91
2022/07/31 10:35:01;;;;;;;12.77;9.48;;;;;;;24.00;66.08;101559.56;5043480;28;20052;-91
2022/07/31 10:37:52;;;;;;;14.82;9.30;;;;;;;24.03;67.78;101550.53;5030164;28;20017;-91
2022/07/31 10:40:30;;;;;;;14.85;9.00;;;;;;;24.19;66.85;101564.47;5062405;28;20524;-91
2022/07/31 10:43:36;;;;;;;12.38;9.18;;;;;;;24.27;65.41;101556.84;5029508;28;20032;-92
2022/07/31 10:46:12;;;;;;;;;;;;;;;;;;;;;
2022/07/31 10:48:58;;;;;;;12.00;8.35;;;;;;;24.33;65.78;101547.59;5059518;28;20047;-91
2022/07/31 10:54:19;;;;;;;10.63;8.23;;;;;;;24.43;63.47;101546.00;5041096;28;20071;-92
2022/07/31 10:56:46;;;;;;;11.40;7.55;;;;;;;24.45;63.64;101549.38;5033567;28;20147;-90
2022/07/31 10:59:40;;;;;;;10.40;7.40;;;;;;;24.43;64.00;101545.16;5065661;28;20031;-91
2022/07/31 11:02:27;;;;;;;11.20;7.68;;;;;;;24.26;64.09;101551.63;5026562;28;20047;-91
2022/07/31 11:05:29;;;;;;;12.63;7.88;;;;;;;24.19;64.92;101551.22;5046901;28;20139;-92
2022/07/31 11:08:04;;;;;;;11.85;7.35;;;;;;;23.96;64.91;101551.91;5031251;28;20041;-91
2022/07/31 11:10:30;;;;;;;10.90;7.97;;;;;;;23.79;65.05;101544.28;5033891;28;20029;-91
2022/07/31 11:13:11;;;;;;;10.05;7.22;;;;;;;23.66;66.21;101548.72;5034864;28;20017;-91
2022/07/31 11:15:37;;;;;;;8.88;6.38;;;;;;;23.55;67.38;101533.53;5051050;28;20032;-91
2022/07/31 11:18:35;;;;;;;10.68;7.25;;;;;;;23.72;67.25;101524.47;5048960;28;20115;-91
2022/07/31 11:21:03;;;;;;;10.52;7.00;;;;;;;23.99;65.63;101527.88;5033122;28;20097;-91
2022/07/31 11:23:32;;;;;;;9.65;7.13;;;;;;;24.25;65.57;101526.94;5041775;28;20036;-92
2022/07/31 11:26:04;;;;;;;11.00;6.93;;;;;;;24.37;64.24;101522.56;5034929;28;20091;-91
2022/07/31 11:28:30;;;;;;;9.70;6.70;;;;;;;24.48;65.83;101530.63;5052137;28;20486;-88
2022/07/31 11:31:00;;;;;;;8.77;6.63;;;;;;;24.55;64.91;101521.28;5050949;28;20437;-88
2022/07/31 11:33:42;;;;;;;7.93;6.32;;;;;;;24.68;63.97;101523.91;5051528;28;20028;-88
2022/07/31 11:36:24;;;;;;;9.55;6.32;;;;;;;24.72;63.66;101528.00;5048829;28;20040;-89
2022/07/31 11:39:00;;;;;;;7.88;6.10;;;;;;;24.71;64.73;101521.00;5022686;28;20043;-88
2022/07/31 11:41:29;;;;;;;8.73;6.30;;;;;;;24.88;62.30;101525.09;5046702;28;20029;-89
2022/07/31 11:44:03;;;;;;;9.68;6.30;;;;;;;24.97;62.99;101513.88;5027001;28;20029;-89
2022/07/31 11:46:36;;;;;;;8.88;6.25;;;;;;;24.97;62.50;101509.41;5032295;28;20098;-88
2022/07/31 11:49:03;;;;;;;9.68;6.50;;;;;;;24.94;63.02;101514.09;5033831;28;20021;-88
2022/07/31 11:51:32;;;;;;;11.38;6.70;;;;;;;24.91;62.38;101516.94;5033092;28;20036;-88
2022/07/31 11:53:59;;;;;;;8.40;6.93;;;;;;;24.76;61.61;101509.13;5050618;28;20056;-87
2022/07/31 11:56:36;;;;;;;9.07;6.85;;;;;;;24.71;62.50;101505.09;5051401;28;20029;-88
2022/07/31 11:59:03;;;;;;;11.80;7.32;;;;;;;24.87;61.16;101505.69;5032438;28;20047;-87
2022/07/31 12:01:43;;;;;;;8.05;6.80;;;;;;;25.11;61.99;101506.56;5027395;28;20018;-88
2022/07/31 12:04:40;;;;;;;;;;;;;;;;;;;;;
2022/07/31 12:07:40;;;;;;;;;;;;;;;;;;;;;
2022/07/31 12:10:35;;;;;;;9.52;7.50;;;;;;;25.19;61.38;101504.19;5046886;28;20027;-90
2022/07/31 12:13:01;;;;;;;10.93;7.00;;;;;;;25.14;61.03;101506.34;5000270;28;20067;-90
2022/07/31 12:16:01;;;;;;;9.27;6.60;;;;;;;25.05;61.56;101506.16;5035716;28;20496;-89
2022/07/31 12:19:21;;;;;;;8.35;6.03;;;;;;;24.93;61.83;101510.56;5021618;28;20048;-89
2022/07/31 12:22:39;;;;;;;9.50;5.80;;;;;;;24.85;62.33;101506.75;5027524;28;20043;-89
2022/07/31 12:26:19;;;;;;;;;;;;;;;;;;;;;
2022/07/31 12:28:42;;;;;;;9.70;7.07;;;;;;;25.01;63.04;101505.56;5017371;28;20141;-90
2022/07/31 12:31:51;;;;;;;9.77;7.50;;;;;;;25.20;62.07;101505.03;5001919;28;20045;-90
2022/07/31 12:34:40;;;;;;;9.15;7.05;;;;;;;25.48;61.50;101507.31;5030037;28;20431;-90
2022/07/31 12:37:53;;;;;;;;;;;;;;;;;;;;;
2022/07/31 12:40:48;;;;;;;;;;;;;;;;;;;;;
2022/07/31 12:43:14;;;;;;;10.60;8.45;;;;;;;25.41;59.62;101489.31;5050014;28;20025;-90
2022/07/31 12:45:42;;;;;;;10.60;8.05;;;;;;;25.32;58.95;101495.31;5043411;28;20112;-88
2022/07/31 12:48:22;;;;;;;11.27;8.43;;;;;;;25.23;60.04;101496.88;5032665;28;20050;-89
2022/07/31 12:50:51;;;;;;;10.85;8.60;;;;;;;25.27;60.11;101471.78;5028153;28;20398;-88
2022/07/31 12:53:17;;;;;;;12.65;8.57;;;;;;;25.50;60.31;101480.66;5032038;28;20521;-88
2022/07/31 12:55:43;;;;;;;12.35;8.98;;;;;;;25.64;59.49;101474.31;5048561;28;20068;-88
2022/07/31 12:58:48;;;;;;;10.27;8.35;;;;;;;25.73;58.68;101471.78;5021543;28;20371;-89
2022/07/31 13:01:14;;;;;;;10.15;7.45;;;;;;;25.86;58.58;101475.19;5048715;28;20108;-89
2022/07/31 13:03:42;;;;;;;11.18;7.88;;;;;;;25.80;59.01;101467.69;5039863;28;20135;-90
2022/07/31 13:06:36;;;;;;;11.52;7.63;;;;;;;25.92;59.55;101476.53;5031136;28;20052;-90
2022/07/31 13:09:04;;;;;;;8.90;7.50;;;;;;;25.88;58.02;101475.06;5026047;28;20032;-89
2022/07/31 13:11:34;;;;;;;12.50;7.72;;;;;;;25.73;58.17;101485.06;5032350;28;20085;-90
2022/07/31 13:13:59;;;;;;;9.50;7.30;;;;;;;25.51;58.14;101469.09;5034213;28;20565;-88
2022/07/31 13:16:24;;;;;;;13.88;7.80;;;;;;;25.38;59.12;101468.31;5053090;28;20078;-89
2022/07/31 13:18:55;;;;;;;18.23;7.78;;;;;;;25.29;59.38;101475.16;5054823;28;20315;-90
2022/07/31 13:21:25;;;;;;;11.27;7.35;;;;;;;25.25;58.79;101462.25;5050974;28;20426;-91
2022/07/31 13:23:53;;;;;;;11.15;6.95;;;;;;;25.06;59.58;101453.00;5031906;28;20025;-90
2022/07/31 13:26:19;;;;;;;11.77;7.47;;;;;;;24.93;60.43;101460.19;5031547;28;20031;-90
2022/07/31 13:28:45;;;;;;;10.68;7.80;;;;;;;24.95;60.78;101462.72;5048975;28;20037;-90
2022/07/31 13:31:18;;;;;;;9.10;7.60;;;;;;;24.96;61.29;101462.63;5047706;28;20032;-91
2022/07/31 13:33:44;;;;;;;10.38;7.50;;;;;;;25.09;60.47;101457.25;5030847;28;20058;-90
2022/07/31 13:36:12;;;;;;;10.45;7.57;;;;;;;25.26;60.74;101455.97;5025657;28;20112;-89
2022/07/31 13:38:38;;;;;;;11.88;7.85;;;;;;;25.48;59.67;101462.19;5015211;28;20145;-89
2022/07/31 13:43:50;;;;;;;11.85;7.00;;;;;;;25.73;58.55;101458.50;5048063;28;20047;-91
2022/07/31 13:46:17;;;;;;;9.88;7.43;;;;;;;25.76;58.44;101447.66;5050067;28;20090;-90
2022/07/31 13:48:42;;;;;;;12.32;7.18;;;;;;;25.84;57.52;101445.25;5029432;28;20466;-91
2022/07/31 13:51:22;;;;;;;9.48;7.00;;;;;;;25.87;57.69;101458.28;5036251;28;20087;-91